createdAt,value
2019-03-24T00:00:47.821Z,55.27
2019-03-24T00:03:17.356Z,46.87
2019-03-24T00:05:46.744Z,50.97
2019-03-24T00:08:16.056Z,48.73
2019-03-24T00:10:45.528Z,58.30
2019-03-24T00:13:15.010Z,51.37
2019-03-24T00:15:44.421Z,57.13
2019-03-24T00:18:14.073Z,54.63
2019-03-24T00:20:43.683Z,54.37
2019-03-24T00:23:13.172Z,53.97
2019-03-24T00:25:42.813Z,55.70
2019-03-24T00:28:12.149Z,54.13
2019-03-24T00:30:41.477Z,52.70
2019-03-24T00:33:11.087Z,53.80
2019-03-24T00:35:40.510Z,51.80
2019-03-24T00:38:09.885Z,60.60
2019-03-24T00:40:39.515Z,58.87
2019-03-24T00:43:08.820Z,55.70
2019-03-24T00:45:38.320Z,60.10
2019-03-24T00:48:07.629Z,57.93
2019-03-24T00:50:37.109Z,56.43
2019-03-24T00:53:06.893Z,57.57
2019-03-24T00:55:36.627Z,49.30
2019-03-24T00:58:06.338Z,51.97
2019-03-24T01:00:46.061Z,47.33
2019-03-24T01:03:15.620Z,53.87
2019-03-24T01:05:45.363Z,53.77
2019-03-24T01:08:14.938Z,50.67
2019-03-24T01:10:44.290Z,55.03
2019-03-24T01:13:14.725Z,55.80
2019-03-24T01:15:47.847Z,51.03
2019-03-24T01:18:16.030Z,55.77
2019-03-24T01:20:45.429Z,51.37
2019-03-24T01:23:14.750Z,59.17
2019-03-24T01:25:44.215Z,59.13
2019-03-24T01:28:13.910Z,60.10
2019-03-24T01:30:43.989Z,55.93
2019-03-24T01:33:13.481Z,61.17
2019-03-24T01:35:42.845Z,60.93
2019-03-24T01:38:12.173Z,75.17
2019-03-24T01:40:41.580Z,70.13
2019-03-24T01:43:10.888Z,83.87
2019-03-24T01:45:40.212Z,83.63
2019-03-24T01:48:09.537Z,84.13
2019-03-24T01:50:39.188Z,78.80
2019-03-24T01:53:08.500Z,79.43
2019-03-24T01:55:37.816Z,70.93
2019-03-24T01:58:07.129Z,68.43
2019-03-24T02:00:36.522Z,61.60
2019-03-24T02:03:05.828Z,59.67
2019-03-24T02:05:35.404Z,56.23
2019-03-24T02:08:04.787Z,63.93
2019-03-24T02:10:34.285Z,55.27
2019-03-24T02:13:03.628Z,58.33
2019-03-24T02:15:32.993Z,60.20
2019-03-24T02:18:02.293Z,58.67
2019-03-24T02:20:31.949Z,56.80
2019-03-24T02:23:01.331Z,49.80
2019-03-24T02:25:30.686Z,51.13
2019-03-24T02:28:00.324Z,53.27
2019-03-24T02:30:29.960Z,56.13
2019-03-24T02:32:59.311Z,64.13
2019-03-24T02:35:29.145Z,58.50
2019-03-24T02:37:58.801Z,56.93
2019-03-24T02:40:28.289Z,58.60
2019-03-24T02:42:57.655Z,61.90
2019-03-24T02:45:27.040Z,58.67
2019-03-24T02:47:56.711Z,65.87
2019-03-24T02:50:26.155Z,55.13
2019-03-24T02:52:55.485Z,66.50
2019-03-24T02:55:25.348Z,72.03
2019-03-24T02:57:55.079Z,75.57
2019-03-24T03:00:24.473Z,76.67
2019-03-24T03:02:54.462Z,76.60
2019-03-24T03:05:23.843Z,76.20
2019-03-24T03:07:53.653Z,114.97
2019-03-24T03:10:23.446Z,96.63
2019-03-24T03:12:55.349Z,84.53
2019-03-24T03:15:24.726Z,85.33
2019-03-24T03:17:54.109Z,83.27
2019-03-24T03:20:23.785Z,77.27
2019-03-24T03:22:53.100Z,85.97
2019-03-24T03:25:22.430Z,82.20
2019-03-24T03:27:51.769Z,82.80
2019-03-24T03:30:21.166Z,72.23
2019-03-24T03:32:50.809Z,69.20
2019-03-24T03:35:20.452Z,65.37
2019-03-24T03:37:50.217Z,53.90
2019-03-24T03:40:19.590Z,62.73
2019-03-24T03:42:49.069Z,60.17
2019-03-24T03:45:26.366Z,63.33
2019-03-24T03:47:56.072Z,58.53
2019-03-24T03:50:25.646Z,56.40
2019-03-24T03:52:55.113Z,63.63
2019-03-24T03:55:24.508Z,76.63
2019-03-24T03:57:53.919Z,65.57
2019-03-24T04:00:32.356Z,68.03
2019-03-24T04:03:02.497Z,77.77
2019-03-24T04:05:32.307Z,70.70
2019-03-24T04:08:02.135Z,66.47
2019-03-24T04:10:31.724Z,69.73
2019-03-24T04:13:01.055Z,73.80
2019-03-24T04:15:30.662Z,82.60
2019-03-24T04:17:59.990Z,84.83
2019-03-24T04:20:29.384Z,83.60
2019-03-24T04:22:58.824Z,83.07
2019-03-24T04:25:28.245Z,73.77
2019-03-24T04:27:57.906Z,70.80
2019-03-24T04:30:27.312Z,64.20
2019-03-24T04:32:57.165Z,82.87
2019-03-24T04:35:26.491Z,76.37
2019-03-24T04:37:55.812Z,72.87
2019-03-24T04:40:25.512Z,65.60
2019-03-24T04:42:54.897Z,63.10
2019-03-24T04:45:24.476Z,61.30
2019-03-24T04:47:54.057Z,52.93
2019-03-24T04:50:23.652Z,54.63
2019-03-24T04:52:52.965Z,54.30
2019-03-24T04:55:22.677Z,50.13
2019-03-24T04:57:52.013Z,51.03
2019-03-24T05:00:43.176Z,46.83
2019-03-24T05:03:12.589Z,43.10
2019-03-24T05:05:42.390Z,52.33
2019-03-24T05:08:14.423Z,50.87
2019-03-24T05:10:43.733Z,56.00
2019-03-24T05:13:13.065Z,69.13
2019-03-24T05:15:42.502Z,57.87
2019-03-24T05:18:12.481Z,56.07
2019-03-24T05:20:42.061Z,58.73
2019-03-24T05:23:11.870Z,43.53
2019-03-24T05:25:41.374Z,43.33
2019-03-24T05:28:10.853Z,44.03
2019-03-24T05:30:40.487Z,45.33
2019-03-24T05:33:09.809Z,42.53
2019-03-24T05:35:39.134Z,47.87
2019-03-24T05:38:08.645Z,45.17
2019-03-24T05:40:38.265Z,45.73
2019-03-24T05:43:07.988Z,49.17
2019-03-24T05:45:37.347Z,54.10
2019-03-24T05:48:14.030Z,47.87
2019-03-24T05:50:43.712Z,46.37
2019-03-24T05:53:13.021Z,53.40
2019-03-24T05:55:42.344Z,50.97
2019-03-24T05:58:11.946Z,55.27
2019-03-24T06:00:41.346Z,62.60
2019-03-24T06:03:10.761Z,57.43
2019-03-24T06:05:40.537Z,60.03
2019-03-24T06:08:10.221Z,65.20
2019-03-24T06:10:39.609Z,66.60
2019-03-24T06:13:08.964Z,74.37
2019-03-24T06:15:38.612Z,95.40
2019-03-24T06:18:08.388Z,97.00
2019-03-24T06:20:37.761Z,101.73
2019-03-24T06:23:07.208Z,119.97
2019-03-24T06:25:37.583Z,127.27
2019-03-24T06:28:07.174Z,141.50
2019-03-24T06:30:36.525Z,159.20
2019-03-24T06:33:06.384Z,167.03
2019-03-24T06:35:35.733Z,158.07
2019-03-24T06:38:05.205Z,155.63
2019-03-24T06:40:34.602Z,142.63
2019-03-24T06:43:03.922Z,152.27
2019-03-24T06:45:33.367Z,135.73
2019-03-24T06:48:03.040Z,133.80
2019-03-24T06:50:32.472Z,122.40
2019-03-24T06:53:01.821Z,134.43
2019-03-24T06:55:30.474Z,118.37
2019-03-24T06:57:59.845Z,109.97
2019-03-24T07:00:29.195Z,95.60
2019-03-24T07:02:58.605Z,85.87
2019-03-24T07:05:28.030Z,102.50
2019-03-24T07:07:57.341Z,73.67
2019-03-24T07:10:26.694Z,75.27
2019-03-24T07:12:56.070Z,87.13
2019-03-24T07:15:25.417Z,98.60
2019-03-24T07:17:54.840Z,69.70
2019-03-24T07:20:24.556Z,84.47
2019-03-24T07:22:54.297Z,82.17
2019-03-24T07:25:23.968Z,79.10
2019-03-24T07:27:53.269Z,74.97
2019-03-24T07:30:22.763Z,70.43
2019-03-24T07:32:52.075Z,81.13
2019-03-24T07:35:21.723Z,69.60
2019-03-24T07:37:51.120Z,63.63
2019-03-24T07:40:20.778Z,64.63
2019-03-24T07:42:50.430Z,61.80
2019-03-24T07:45:19.832Z,66.37
2019-03-24T07:47:49.229Z,59.87
2019-03-24T07:50:18.770Z,57.37
2019-03-24T07:52:48.294Z,69.47
2019-03-24T07:55:17.968Z,63.57
2019-03-24T07:57:47.285Z,57.50
2019-03-24T08:00:28.188Z,61.97
2019-03-24T08:02:57.858Z,54.87
2019-03-24T08:05:27.180Z,54.40
2019-03-24T08:07:56.589Z,56.43
2019-03-24T08:10:26.117Z,67.93
2019-03-24T08:12:55.685Z,56.13
2019-03-24T08:15:25.276Z,60.10
2019-03-24T08:17:54.888Z,58.43
2019-03-24T08:20:24.212Z,63.00
2019-03-24T08:22:53.649Z,60.70
2019-03-24T08:25:23.587Z,60.27
2019-03-24T08:27:53.000Z,62.90
2019-03-24T08:30:34.421Z,62.97
2019-03-24T08:33:04.098Z,66.63
2019-03-24T08:35:34.121Z,66.23
2019-03-24T08:38:03.513Z,63.07
2019-03-24T08:40:33.235Z,61.53
2019-03-24T08:43:02.858Z,60.23
2019-03-24T08:45:35.275Z,66.40
2019-03-24T08:48:05.188Z,71.30
2019-03-24T08:50:34.528Z,76.00
2019-03-24T08:53:04.281Z,71.83
2019-03-24T08:55:33.677Z,71.50
2019-03-24T08:58:02.989Z,71.47
2019-03-24T09:00:32.894Z,78.63
2019-03-24T09:03:02.557Z,73.80
2019-03-24T09:05:33.729Z,85.03
2019-03-24T09:08:03.639Z,93.03
2019-03-24T09:10:33.178Z,95.30
2019-03-24T09:13:02.592Z,92.40
2019-03-24T09:15:31.979Z,92.47
2019-03-24T09:18:01.368Z,102.53
2019-03-24T09:20:40.989Z,99.40
2019-03-24T09:23:01.916Z,106.67
2019-03-24T09:25:31.327Z,103.27
2019-03-24T09:28:00.752Z,99.03
2019-03-24T09:30:31.505Z,100.23
2019-03-24T09:33:00.973Z,105.27
2019-03-24T09:35:30.565Z,105.07
2019-03-24T09:38:00.150Z,105.27
2019-03-24T09:40:33.066Z,108.90
2019-03-24T09:43:03.651Z,104.10
2019-03-24T09:45:33.083Z,106.50
2019-03-24T09:48:02.533Z,97.60
2019-03-24T09:50:32.020Z,108.63
2019-03-24T09:53:01.932Z,108.30
2019-03-24T09:55:31.735Z,96.35
2019-03-24T09:58:02.305Z,104.12
2019-03-24T10:00:32.149Z,100.70
2019-03-24T10:03:01.688Z,96.92
2019-03-24T10:05:31.660Z,88.37
2019-03-24T10:08:01.080Z,90.53
2019-03-24T10:10:30.462Z,90.17
2019-03-24T10:12:59.953Z,88.87
2019-03-24T10:15:29.405Z,83.58
2019-03-24T10:17:59.042Z,81.08
2019-03-24T10:20:28.432Z,106.72
2019-03-24T10:22:57.785Z,94.13
2019-03-24T10:25:27.239Z,83.47
2019-03-24T10:27:56.768Z,77.60
2019-03-24T10:30:26.160Z,80.25
2019-03-24T10:32:57.285Z,80.83
2019-03-24T10:35:26.625Z,69.22
2019-03-24T10:38:00.071Z,71.22
2019-03-24T10:40:29.571Z,70.67
2019-03-24T10:42:59.148Z,68.72
2019-03-24T10:45:29.446Z,71.60
2019-03-24T10:47:59.342Z,78.62
2019-03-24T10:50:29.238Z,66.45
2019-03-24T10:52:58.639Z,74.17
2019-03-24T10:55:28.698Z,68.17
2019-03-24T10:57:58.352Z,71.97
2019-03-24T11:00:41.502Z,78.17
2019-03-24T11:03:10.922Z,77.58
2019-03-24T11:05:40.349Z,72.17
2019-03-24T11:08:09.930Z,72.60
2019-03-24T11:10:39.726Z,70.50
2019-03-24T11:13:09.301Z,71.02
2019-03-24T11:15:39.933Z,70.70
2019-03-24T11:18:09.654Z,77.20
2019-03-24T11:20:39.460Z,72.55
2019-03-24T11:23:08.867Z,65.50
2019-03-24T11:25:38.697Z,60.03
2019-03-24T11:28:08.522Z,53.85
2019-03-24T11:30:37.915Z,65.72
2019-03-24T11:33:07.310Z,62.38
2019-03-24T11:35:36.702Z,60.78
2019-03-24T11:38:10.516Z,67.22
2019-03-24T11:40:39.935Z,73.65
2019-03-24T11:43:09.294Z,69.42
2019-03-24T11:45:38.880Z,65.92
2019-03-24T11:48:08.289Z,68.05
2019-03-24T11:50:41.009Z,66.07
2019-03-24T11:53:10.443Z,66.40
2019-03-24T11:55:39.879Z,60.20
2019-03-24T11:58:09.244Z,55.80
2019-03-24T12:00:40.198Z,59.83
2019-03-24T12:03:09.895Z,65.80
2019-03-24T12:05:39.854Z,62.60
2019-03-24T12:08:09.364Z,63.02
2019-03-24T12:10:38.926Z,64.20
2019-03-24T12:13:15.874Z,59.93
2019-03-24T12:15:45.595Z,61.35
2019-03-24T12:18:14.929Z,63.98
2019-03-24T12:20:44.284Z,63.30
2019-03-24T12:23:13.669Z,56.68
2019-03-24T12:25:42.983Z,53.80
2019-03-24T12:28:12.484Z,53.23
2019-03-24T12:30:41.833Z,53.20
2019-03-24T12:33:11.375Z,54.70
2019-03-24T12:35:41.053Z,67.37
2019-03-24T12:38:10.650Z,67.42
2019-03-24T12:40:40.244Z,74.47
2019-03-24T12:43:18.860Z,69.82
2019-03-24T12:45:41.046Z,64.58
2019-03-24T12:48:10.519Z,64.45
2019-03-24T12:50:39.899Z,63.55
2019-03-24T12:53:09.335Z,64.72
2019-03-24T12:55:38.980Z,66.17
2019-03-24T12:58:08.349Z,66.12
2019-03-24T13:00:41.188Z,65.75
2019-03-24T13:03:10.621Z,60.92
2019-03-24T13:05:41.387Z,51.63
2019-03-24T13:08:20.530Z,61.83
2019-03-24T13:10:50.096Z,64.47
2019-03-24T13:13:22.220Z,59.53
2019-03-24T13:15:52.887Z,62.38
2019-03-24T13:18:32.421Z,61.92
2019-03-24T13:21:01.823Z,51.15
2019-03-24T13:23:31.244Z,62.05
2019-03-24T13:26:00.821Z,49.75
2019-03-24T13:28:30.613Z,56.30
2019-03-24T13:31:00.021Z,49.05
2019-03-24T13:33:29.445Z,57.98
2019-03-24T13:36:09.685Z,50.28
2019-03-24T13:38:39.156Z,50.63
2019-03-24T13:41:09.429Z,56.80
2019-03-24T13:43:39.364Z,57.23
2019-03-24T13:46:09.508Z,52.62
2019-03-24T13:48:39.102Z,47.33
2019-03-24T13:51:08.681Z,53.00
2019-03-24T13:53:38.125Z,45.50
2019-03-24T13:56:07.879Z,50.63
2019-03-24T13:58:37.264Z,47.03
2019-03-24T14:01:07.630Z,48.80
2019-03-24T14:03:37.128Z,44.13
2019-03-24T14:06:06.660Z,45.58
2019-03-24T14:08:36.386Z,46.90
2019-03-24T14:11:05.897Z,43.80
2019-03-24T14:13:35.348Z,40.60
2019-03-24T14:16:05.093Z,44.48
2019-03-24T14:18:35.235Z,52.10
2019-03-24T14:21:05.010Z,55.00
2019-03-24T14:23:34.560Z,49.90
2019-03-24T14:26:04.726Z,52.90
2019-03-24T14:28:34.269Z,55.88
2019-03-24T14:31:03.775Z,53.83
2019-03-24T14:33:33.256Z,52.98
2019-03-24T14:36:03.659Z,55.08
2019-03-24T14:38:33.099Z,53.75
2019-03-24T14:41:02.491Z,53.50
2019-03-24T14:43:33.705Z,55.95
2019-03-24T14:46:03.052Z,52.15
2019-03-24T14:48:32.934Z,53.05
2019-03-24T14:51:02.356Z,55.23
2019-03-24T14:53:31.805Z,52.40
2019-03-24T14:56:01.192Z,51.00
2019-03-24T14:58:30.658Z,56.10
2019-03-24T15:01:00.108Z,52.48
2019-03-24T15:03:29.457Z,56.45
2019-03-24T15:05:59.113Z,61.08
2019-03-24T15:08:28.602Z,55.92
2019-03-24T15:10:57.952Z,52.48
2019-03-24T15:13:29.858Z,55.70
2019-03-24T15:15:59.221Z,50.10
2019-03-24T15:18:28.787Z,53.30
2019-03-24T15:21:05.519Z,57.98
2019-03-24T15:23:31.636Z,57.15
2019-03-24T15:26:01.256Z,58.45
2019-03-24T15:28:30.608Z,60.28
2019-03-24T15:30:59.944Z,58.85
2019-03-24T15:33:29.371Z,62.62
2019-03-24T15:35:58.708Z,55.03
2019-03-24T15:38:28.202Z,55.45
2019-03-24T15:40:57.676Z,54.80
2019-03-24T15:43:27.480Z,56.02
2019-03-24T15:45:56.840Z,56.35
2019-03-24T15:48:26.610Z,58.28
2019-03-24T15:50:56.323Z,53.70
2019-03-24T15:53:25.676Z,62.25
2019-03-24T15:55:55.170Z,60.73
2019-03-24T15:58:24.645Z,59.88
2019-03-24T16:00:54.076Z,60.83
2019-03-24T16:03:24.080Z,59.63
2019-03-24T16:05:56.269Z,54.50
2019-03-24T16:08:25.467Z,60.12
2019-03-24T16:10:55.073Z,61.10
2019-03-24T16:13:24.495Z,59.23
2019-03-24T16:15:54.139Z,58.73
2019-03-24T16:18:24.386Z,56.43
2019-03-24T16:20:53.837Z,58.90
2019-03-24T16:23:23.861Z,62.63
2019-03-24T16:25:55.654Z,51.90
2019-03-24T16:28:24.496Z,63.67
2019-03-24T16:30:54.483Z,55.40
2019-03-24T16:33:23.887Z,56.00
2019-03-24T16:35:53.497Z,57.00
2019-03-24T16:38:22.896Z,58.97
2019-03-24T16:40:52.836Z,53.30
2019-03-24T16:43:22.353Z,52.17
2019-03-24T16:45:51.806Z,54.40
2019-03-24T16:48:21.172Z,53.67
2019-03-24T16:50:52.965Z,54.93
2019-03-24T16:53:22.437Z,56.87
2019-03-24T16:55:52.999Z,59.97
2019-03-24T16:58:22.840Z,62.27
2019-03-24T17:00:52.384Z,64.10
2019-03-24T17:03:21.848Z,62.83
2019-03-24T17:05:51.706Z,56.03
2019-03-24T17:08:21.089Z,64.60
2019-03-24T17:10:50.493Z,62.43
2019-03-24T17:13:19.880Z,67.87
2019-03-24T17:15:49.340Z,70.73
2019-03-24T17:18:21.965Z,66.23
2019-03-24T17:20:51.637Z,64.83
2019-03-24T17:23:21.078Z,67.07
2019-03-24T17:25:50.761Z,65.83
2019-03-24T17:28:20.272Z,67.83
2019-03-24T17:30:49.600Z,71.93
2019-03-24T17:33:18.932Z,71.87
2019-03-24T17:35:49.188Z,69.90
2019-03-24T17:38:18.693Z,68.20
2019-03-24T17:40:48.310Z,63.27
2019-03-24T17:43:17.672Z,58.40
2019-03-24T17:45:47.108Z,59.47
2019-03-24T17:48:16.764Z,64.60
2019-03-24T17:50:46.198Z,61.10
2019-03-24T17:53:16.073Z,65.43
2019-03-24T17:55:45.465Z,64.40
2019-03-24T17:58:14.784Z,68.17
2019-03-24T18:00:47.153Z,66.00
2019-03-24T18:03:16.639Z,92.40
2019-03-24T18:05:46.120Z,83.30
2019-03-24T18:08:15.593Z,68.97
2019-03-24T18:10:45.265Z,67.07
2019-03-24T18:13:14.901Z,66.03
2019-03-24T18:15:44.314Z,64.80
2019-03-24T18:18:13.958Z,76.93
2019-03-24T18:20:44.073Z,68.97
2019-03-24T18:23:13.895Z,78.90
2019-03-24T18:25:43.443Z,59.40
2019-03-24T18:28:13.136Z,64.23
2019-03-24T18:30:43.096Z,66.57
2019-03-24T18:33:13.371Z,70.10
2019-03-24T18:35:43.524Z,69.70
2019-03-24T18:38:13.588Z,76.40
2019-03-24T18:40:43.513Z,75.90
2019-03-24T18:43:13.180Z,67.00
2019-03-24T18:45:43.625Z,68.07
2019-03-24T18:48:13.223Z,69.47
2019-03-24T18:50:43.347Z,73.83
2019-03-24T18:53:12.685Z,72.67
2019-03-24T18:55:43.068Z,71.93
2019-03-24T18:58:16.752Z,73.03
2019-03-24T19:00:46.405Z,70.50
2019-03-24T19:03:16.991Z,79.53
2019-03-24T19:05:51.685Z,69.53
2019-03-24T19:08:21.756Z,73.43
2019-03-24T19:10:51.534Z,76.53
2019-03-24T19:13:21.281Z,73.17
2019-03-24T19:15:51.109Z,77.40
2019-03-24T19:18:21.022Z,81.97
2019-03-24T19:20:52.761Z,77.97
2019-03-24T19:23:24.114Z,83.90
2019-03-24T19:25:54.191Z,78.07
2019-03-24T19:28:24.857Z,79.63
2019-03-24T19:30:55.164Z,74.30
2019-03-24T19:33:24.833Z,72.13
2019-03-24T19:35:54.708Z,66.87
2019-03-24T19:38:25.228Z,70.83
2019-03-24T19:40:56.141Z,71.67
2019-03-24T19:43:26.684Z,78.00
2019-03-24T19:45:56.432Z,80.50
2019-03-24T19:48:27.988Z,70.20
2019-03-24T19:51:01.083Z,75.90
2019-03-24T19:53:35.491Z,76.87
2019-03-24T19:56:09.922Z,75.07
2019-03-24T19:58:40.129Z,80.70
2019-03-24T20:01:10.133Z,83.20
2019-03-24T20:03:39.654Z,75.17
2019-03-24T20:06:08.964Z,74.20
2019-03-24T20:08:38.449Z,76.30
2019-03-24T20:11:08.102Z,76.10
2019-03-24T20:13:37.409Z,75.93
2019-03-24T20:16:06.735Z,72.33
2019-03-24T20:18:36.326Z,70.53
2019-03-24T20:21:05.637Z,81.03
2019-03-24T20:23:35.664Z,81.27
2019-03-24T20:26:05.469Z,76.43
2019-03-24T20:28:34.859Z,77.60
2019-03-24T20:31:04.662Z,71.93
2019-03-24T20:33:34.321Z,78.00
2019-03-24T20:36:04.197Z,80.63
2019-03-24T20:38:33.514Z,75.57
2019-03-24T20:41:02.820Z,76.03
2019-03-24T20:43:32.802Z,84.60
2019-03-24T20:46:02.120Z,85.73
2019-03-24T20:48:31.537Z,82.87
2019-03-24T20:51:00.891Z,85.10
2019-03-24T20:53:30.253Z,96.50
2019-03-24T20:56:00.040Z,95.00
2019-03-24T20:58:29.692Z,92.83
2019-03-24T21:00:59.501Z,93.73
2019-03-24T21:03:29.189Z,85.87
2019-03-24T21:05:58.545Z,91.97
2019-03-24T21:08:28.368Z,90.00
2019-03-24T21:10:58.213Z,95.63
2019-03-24T21:13:27.893Z,89.43
2019-03-24T21:15:57.213Z,91.97
2019-03-24T21:18:26.640Z,101.33
2019-03-24T21:20:56.598Z,88.73
2019-03-24T21:23:29.848Z,93.57
2019-03-24T21:25:57.264Z,90.57
2019-03-24T21:28:26.593Z,96.63
2019-03-24T21:30:56.095Z,94.80
2019-03-24T21:33:25.428Z,91.70
2019-03-24T21:35:54.771Z,81.77
2019-03-24T21:38:24.100Z,96.83
2019-03-24T21:40:53.753Z,90.53
2019-03-24T21:43:23.544Z,85.53
2019-03-24T21:45:52.900Z,92.67
2019-03-24T21:48:22.253Z,95.37
2019-03-24T21:50:51.561Z,83.07
2019-03-24T21:53:21.164Z,90.30
2019-03-24T21:55:50.476Z,84.07
2019-03-24T21:58:20.080Z,91.67
2019-03-24T22:00:49.440Z,81.60
2019-03-24T22:03:18.805Z,78.13
2019-03-24T22:05:48.187Z,83.10
2019-03-24T22:08:17.880Z,78.00
2019-03-24T22:10:47.274Z,86.17
2019-03-24T22:13:16.623Z,88.73
2019-03-24T22:15:45.929Z,80.47
2019-03-24T22:18:15.257Z,75.00
2019-03-24T22:20:49.033Z,84.17
2019-03-24T22:23:16.003Z,80.20
2019-03-24T22:25:46.290Z,83.13
2019-03-24T22:28:16.164Z,81.43
2019-03-24T22:30:45.789Z,81.80
2019-03-24T22:33:15.131Z,77.53
2019-03-24T22:35:47.059Z,72.50
2019-03-24T22:38:15.776Z,83.17
2019-03-24T22:40:45.269Z,76.50
2019-03-24T22:43:14.888Z,78.00
2019-03-24T22:45:44.453Z,84.67
2019-03-24T22:48:14.023Z,86.73
2019-03-24T22:50:43.708Z,79.57
2019-03-24T22:53:13.411Z,87.63
2019-03-24T22:55:42.828Z,78.53
2019-03-24T22:58:12.185Z,77.47
2019-03-24T23:00:50.889Z,78.63
2019-03-24T23:03:20.541Z,86.20
2019-03-24T23:05:49.922Z,86.40
2019-03-24T23:08:19.251Z,97.63
2019-03-24T23:10:48.574Z,91.73
2019-03-24T23:13:18.020Z,88.83
2019-03-24T23:15:47.433Z,89.17
2019-03-24T23:18:17.017Z,97.87
2019-03-24T23:20:46.611Z,99.33
2019-03-24T23:23:15.937Z,97.27
2019-03-24T23:25:45.264Z,91.40
2019-03-24T23:28:14.662Z,92.33
2019-03-24T23:30:44.453Z,95.30
2019-03-24T23:33:13.896Z,91.67
2019-03-24T23:35:43.236Z,90.43
2019-03-24T23:38:12.983Z,93.57
2019-03-24T23:40:42.697Z,91.93
2019-03-24T23:43:12.355Z,88.60
2019-03-24T23:45:41.676Z,94.03
2019-03-24T23:48:11.342Z,94.47
2019-03-24T23:50:40.960Z,91.63
2019-03-24T23:53:10.344Z,90.87
2019-03-24T23:55:40.020Z,86.00
2019-03-24T23:58:09.609Z,86.03
